San Cayetano, Argentina
Current Conditions -  °F | °C
As of 1:00 PM on Saturday 20 Dec 2014 (Local Time) from SAZM Reporting Station
Broken Clouds Broken Clouds  
Wind Chill: 19°   Ceiling: 1500
Heat Index: 19°   Visibility: 5mi
Dew Point: 14°   Wind: 16mph
Humidity: 73%   Direction: 200°SSW
Pressure: 29.65"   Gusts: NA
Location:  38.33°S, 59.62°W
Report Text: SAZM 201600Z 20014KT 8000 BKN015 BKN20019/14 Q1004
Loading
Personal Weather Stations






























Interactive Weather Map New forecast layout! Learn more

10-Day Weather Forecast

Advertisements
Track Severe Weather on mobile